Time;durP1;ratioP1;P1;durP2;ratioP2;P2;SDS_P1;SDS_P2;PMS_P1;PMS_P2;Temp;Humidity;BMP_temperature;BMP_pressure;BME280_temperature;BME280_humidity;BME280_pressure;Samples;Min_cycle;Max_cycle;Signal;HPM_P1;HPM_P2
2021/10/07 00:01:25;;;;;;;14.63;5.32;;;;;;;14.30;59.66;100868.84;4978106;28;20626;-50
2021/10/07 00:03:52;;;;;;;13.02;4.82;;;;;;;14.31;59.82;100866.25;4977533;28;21995;-48
2021/10/07 00:06:20;;;;;;;21.90;7.72;;;;;;;14.31;59.79;100874.06;4978083;28;20499;-47
2021/10/07 00:08:47;;;;;;;5.55;2.35;;;;;;;14.30;59.74;100869.72;4976724;28;20050;-47
2021/10/07 00:11:16;;;;;;;11.93;5.13;;;;;;;14.32;59.52;100883.59;4978156;28;20107;-47
2021/10/07 00:13:43;;;;;;;16.63;7.28;;;;;;;14.31;60.25;100874.06;4975824;28;20061;-47
2021/10/07 00:16:10;;;;;;;10.48;4.70;;;;;;;14.31;59.79;100874.06;4977369;28;20046;-47
2021/10/07 00:18:38;;;;;;;7.10;3.80;;;;;;;14.32;60.36;100870.56;4974893;28;20141;-46
2021/10/07 00:21:05;;;;;;;13.90;5.20;;;;;;;14.33;59.52;100871.44;4976369;28;20046;-48
2021/10/07 00:23:37;;;;;;;11.27;4.47;;;;;;;14.33;59.52;100867.13;4978280;28;20046;-48
2021/10/07 00:26:04;;;;;;;10.25;3.22;;;;;;;14.32;59.79;100873.19;4975692;28;20062;-48
2021/10/07 00:28:32;;;;;;;7.38;3.88;;;;;;;14.34;60.02;100873.19;4979867;28;20058;-48
2021/10/07 00:31:02;;;;;;;6.03;3.38;;;;;;;14.32;60.52;100878.38;4976773;28;20058;-49
2021/10/07 00:33:39;;;;;;;6.53;3.25;;;;;;;14.34;60.74;100879.25;4976394;28;20064;-47
2021/10/07 00:36:15;;;;;;;11.07;5.18;;;;;;;14.33;60.44;100877.53;4975643;28;21048;-47
2021/10/07 00:41:29;;;;;;;9.65;4.80;;;;;;;14.33;60.67;100877.53;4964247;28;20457;-46
2021/10/07 00:44:01;;;;;;;7.15;3.17;;;;;;;14.34;60.57;100876.66;4975596;28;20058;-50
2021/10/07 00:46:28;;;;;;;4.68;2.97;;;;;;;14.33;60.40;100872.31;4978799;28;20084;-47
2021/10/07 00:48:55;;;;;;;7.40;3.28;;;;;;;14.34;59.72;100876.66;4977604;28;20050;-48
2021/10/07 00:51:21;;;;;;;8.90;4.00;;;;;;;14.34;59.84;100868.84;4976964;28;20053;-46
2021/10/07 00:53:48;;;;;;;9.02;4.45;;;;;;;14.35;60.24;100874.91;4977510;28;20498;-48
2021/10/07 00:56:18;;;;;;;6.00;3.60;;;;;;;14.32;60.57;100867.97;4975572;28;20065;-48
2021/10/07 00:58:45;;;;;;;6.70;3.25;;;;;;;14.32;60.28;100873.19;4976799;28;20054;-47
2021/10/07 01:01:12;;;;;;;9.25;3.15;;;;;;;14.33;60.74;100872.31;4977468;28;20050;-49
2021/10/07 01:03:39;;;;;;;6.50;3.28;;;;;;;14.34;60.69;100865.34;4978495;28;20081;-48
2021/10/07 01:06:06;;;;;;;5.47;2.13;;;;;;;14.35;61.19;100875.78;4976650;28;20085;-49
2021/10/07 01:08:32;;;;;;;9.85;3.20;;;;;;;14.35;60.92;100869.69;4975430;28;20457;-48
2021/10/07 01:11:00;;;;;;;6.43;3.08;;;;;;;14.35;60.04;100870.56;4976716;28;20112;-46
2021/10/07 01:13:26;;;;;;;8.35;3.25;;;;;;;14.34;59.99;100879.25;4974883;28;20101;-47
2021/10/07 01:16:00;;;;;;;7.47;3.55;;;;;;;14.32;60.42;100878.38;4978262;28;20089;-55
2021/10/07 01:18:27;;;;;;;9.35;3.00;;;;;;;14.36;60.46;100871.44;4976873;28;20058;-47
2021/10/07 01:20:53;;;;;;;6.57;2.80;;;;;;;14.37;60.11;100878.38;4977035;28;20108;-48
2021/10/07 01:23:20;;;;;;;4.82;2.40;;;;;;;14.36;61.02;100884.47;4975333;28;20101;-49
2021/10/07 01:25:46;;;;;;;5.80;3.67;;;;;;;14.36;60.59;100887.91;4976767;28;20054;-51
2021/10/07 01:28:13;;;;;;;6.43;2.90;;;;;;;14.36;59.75;100884.47;4976585;28;20442;-52
2021/10/07 01:30:40;;;;;;;4.70;1.38;;;;;;;14.37;60.70;100883.59;4975714;28;20670;-49
2021/10/07 01:33:07;;;;;;;9.23;3.63;;;;;;;14.37;59.52;100884.47;4976234;28;20050;-50
2021/10/07 01:35:34;;;;;;;5.97;3.03;;;;;;;14.38;60.81;100890.53;4973754;28;20049;-49
2021/10/07 01:38:00;;;;;;;7.45;3.40;;;;;;;14.37;59.64;100887.06;4974150;28;20050;-51
2021/10/07 01:40:28;;;;;;;5.32;3.40;;;;;;;14.38;59.54;100893.13;4976623;28;20048;-52
2021/10/07 01:42:55;;;;;;;5.43;2.45;;;;;;;14.39;59.92;100897.50;4974545;28;20053;-50
2021/10/07 01:45:22;;;;;;;3.60;2.15;;;;;;;14.38;59.90;100901.81;4974074;28;20062;-49
2021/10/07 01:47:49;;;;;;;5.75;2.35;;;;;;;14.39;60.20;100898.34;4955186;28;20066;-50
2021/10/07 01:50:15;;;;;;;5.22;1.60;;;;;;;14.39;59.87;100903.56;4969846;28;20949;-52
2021/10/07 01:52:43;;;;;;;6.60;2.45;;;;;;;14.39;60.16;100903.56;4976087;28;20105;-51
2021/10/07 01:55:11;;;;;;;5.40;1.83;;;;;;;14.42;60.77;100901.81;4976723;28;20083;-48
2021/10/07 01:57:38;;;;;;;5.75;2.20;;;;;;;14.42;60.97;100896.59;4974866;28;20057;-48
2021/10/07 02:00:08;;;;;;;4.05;1.30;;;;;;;14.40;60.08;100899.22;4976511;28;20591;-47
2021/10/07 02:02:35;;;;;;;4.43;2.58;;;;;;;14.40;59.92;100889.63;4976366;28;20389;-47
2021/10/07 02:05:02;;;;;;;6.15;2.65;;;;;;;14.39;59.67;100885.31;4976259;28;20089;-50
2021/10/07 02:07:29;;;;;;;5.32;2.80;;;;;;;14.40;60.43;100883.56;4974896;28;20074;-47
2021/10/07 02:09:55;;;;;;;4.15;1.60;;;;;;;14.41;60.51;100885.31;4973839;28;20054;-47
2021/10/07 02:12:22;;;;;;;4.07;2.13;;;;;;;14.39;60.36;100877.50;4976512;28;20058;-47
2021/10/07 02:14:49;;;;;;;3.95;2.90;;;;;;;14.40;60.26;100886.19;4956773;28;20047;-48
2021/10/07 02:17:15;;;;;;;3.60;1.58;;;;;;;14.42;60.22;100880.97;4972588;28;20769;-49
2021/10/07 02:19:42;;;;;;;4.80;1.63;;;;;;;14.41;60.18;100882.69;4974886;28;20066;-45
2021/10/07 02:22:08;;;;;;;4.85;2.10;;;;;;;14.42;60.26;100891.41;4974398;28;20058;-48
2021/10/07 02:24:35;;;;;;;3.97;2.13;;;;;;;14.41;60.86;100885.31;4974695;28;20100;-47
2021/10/07 02:27:02;;;;;;;5.80;1.90;;;;;;;14.41;61.17;100890.50;4977309;28;20113;-48
2021/10/07 02:29:28;;;;;;;5.63;2.97;;;;;;;14.40;60.97;100887.03;4974848;28;20086;-48
2021/10/07 02:31:55;;;;;;;5.13;2.28;;;;;;;14.39;60.53;100880.09;4975185;28;20127;-47
2021/10/07 02:34:22;;;;;;;4.55;2.60;;;;;;;14.40;59.94;100884.41;4975253;28;20137;-49
2021/10/07 02:36:50;;;;;;;4.70;1.20;;;;;;;14.42;60.38;100888.78;4973508;28;20175;-48
2021/10/07 02:39:16;;;;;;;4.07;2.53;;;;;;;14.40;60.11;100889.63;4979331;28;20051;-48
2021/10/07 02:41:43;;;;;;;3.42;2.08;;;;;;;14.40;60.89;100889.63;4973786;28;20104;-49
2021/10/07 02:44:10;;;;;;;6.10;2.78;;;;;;;14.42;60.78;100886.19;4974787;28;20113;-48
2021/10/07 02:46:37;;;;;;;4.82;2.42;;;;;;;14.40;60.17;100884.41;4972558;28;20047;-47
2021/10/07 02:49:05;;;;;;;3.30;1.33;;;;;;;14.40;61.10;100889.63;4974182;28;20692;-48
2021/10/07 02:51:31;;;;;;;4.32;2.20;;;;;;;14.43;60.91;100887.91;4972469;28;20129;-48
2021/10/07 02:53:58;;;;;;;8.43;3.15;;;;;;;14.42;60.57;100886.19;4974055;28;20046;-49
2021/10/07 02:56:25;;;;;;;7.03;3.22;;;;;;;14.40;60.55;100881.81;4974376;28;20397;-48
2021/10/07 02:58:51;;;;;;;3.15;2.15;;;;;;;14.42;60.62;100883.56;4974914;28;20050;-48
2021/10/07 03:01:18;;;;;;;4.00;1.85;;;;;;;14.40;60.10;100884.41;4975638;28;20117;-48
2021/10/07 03:03:46;;;;;;;5.57;2.70;;;;;;;14.40;60.70;100889.63;4975170;28;20141;-48
2021/10/07 03:06:12;;;;;;;4.55;2.15;;;;;;;14.40;60.86;100889.63;4974660;28;20141;-47
2021/10/07 03:08:39;;;;;;;4.55;2.55;;;;;;;14.42;60.39;100888.78;4974742;28;20132;-48
2021/10/07 03:11:05;;;;;;;5.15;1.52;;;;;;;14.42;60.39;100888.78;4974949;28;20112;-49
2021/10/07 03:13:32;;;;;;;8.43;2.00;;;;;;;14.42;61.02;100894.00;4974464;28;20502;-49
2021/10/07 03:15:59;;;;;;;5.05;2.35;;;;;;;14.40;61.12;100884.41;4974610;28;20097;-48
2021/10/07 03:18:25;;;;;;;2.83;2.25;;;;;;;14.40;60.74;100896.59;4976534;28;20551;-47
2021/10/07 03:20:52;;;;;;;2.95;2.10;;;;;;;14.42;60.65;100896.59;4974926;28;20483;-47
2021/10/07 03:23:18;;;;;;;6.47;2.63;;;;;;;14.40;61.12;100900.06;4975307;28;20054;-48
2021/10/07 03:25:45;;;;;;;4.70;1.92;;;;;;;14.40;60.84;100900.06;4973858;28;20164;-48
2021/10/07 03:28:11;;;;;;;3.45;2.38;;;;;;;14.40;60.11;100897.47;4974231;28;20058;-48
2021/10/07 03:30:38;;;;;;;5.15;2.00;;;;;;;14.41;60.50;100898.34;4974665;28;20054;-49
2021/10/07 03:33:07;;;;;;;3.20;2.03;;;;;;;14.40;60.10;100899.22;4975555;28;20062;-49
2021/10/07 03:35:35;;;;;;;7.43;1.92;;;;;;;14.42;60.57;100901.81;4974572;28;20064;-49
2021/10/07 03:38:03;;;;;;;4.25;2.63;;;;;;;14.40;60.71;100904.44;4978958;28;20487;-47
2021/10/07 03:40:30;;;;;;;2.33;1.38;;;;;;;14.40;60.44;100920.91;4975366;28;20392;-47
2021/10/07 03:42:57;;;;;;;3.15;1.88;;;;;;;14.40;60.03;100907.88;4974219;28;20129;-50
2021/10/07 03:45:24;;;;;;;4.43;1.73;;;;;;;14.42;60.38;100914.84;4975565;28;20077;-49
2021/10/07 03:47:50;;;;;;;3.88;1.85;;;;;;;14.42;60.46;100912.25;4975698;28;20070;-50
2021/10/07 03:50:18;;;;;;;5.07;2.25;;;;;;;14.41;60.66;100911.38;4973820;28;20051;-48
2021/10/07 03:52:44;;;;;;;2.45;0.90;;;;;;;14.40;60.04;100907.88;4974598;28;20536;-49
2021/10/07 03:55:11;;;;;;;6.20;1.90;;;;;;;14.39;60.84;100911.38;4973854;28;20136;-49
2021/10/07 03:57:38;;;;;;;4.47;2.25;;;;;;;14.39;60.40;100913.97;4975681;28;20112;-48
2021/10/07 04:00:07;;;;;;;4.68;2.22;;;;;;;14.39;60.30;100910.53;4977698;28;20109;-51
2021/10/07 04:02:34;;;;;;;2.40;1.77;;;;;;;14.39;60.84;100916.59;4978775;28;20104;-48
2021/10/07 04:05:01;;;;;;;6.05;2.75;;;;;;;14.40;60.16;100920.91;4972690;28;20058;-49
2021/10/07 04:07:27;;;;;;;2.92;2.63;;;;;;;14.39;59.77;100921.78;4975459;28;20518;-48
2021/10/07 04:09:54;;;;;;;3.80;2.00;;;;;;;14.39;60.27;100924.41;4975559;28;20054;-49
2021/10/07 04:12:21;;;;;;;3.28;1.95;;;;;;;14.40;60.10;100926.13;4977542;28;20111;-48
2021/10/07 04:14:48;;;;;;;3.78;1.58;;;;;;;14.39;61.00;100924.41;4977571;28;20107;-47
2021/10/07 04:17:15;;;;;;;2.40;1.90;;;;;;;14.39;60.24;100921.78;4981109;28;20054;-47
2021/10/07 04:19:41;;;;;;;2.55;1.77;;;;;;;14.40;60.49;100926.13;4978890;28;20047;-52
2021/10/07 04:22:08;;;;;;;7.45;2.28;;;;;;;14.40;60.67;100926.13;4982926;28;20450;-48
2021/10/07 04:24:35;;;;;;;3.53;2.00;;;;;;;14.38;60.19;100935.72;4980935;28;20120;-52
2021/10/07 04:27:01;;;;;;;10.98;2.70;;;;;;;14.39;60.29;100939.19;4977927;28;20137;-48
2021/10/07 04:29:28;;;;;;;3.53;1.80;;;;;;;14.39;61.18;100940.03;4978703;28;20050;-49
2021/10/07 04:31:55;;;;;;;4.63;2.63;;;;;;;14.39;60.72;100941.78;4975480;28;20523;-48
2021/10/07 04:34:22;;;;;;;2.92;1.58;;;;;;;14.38;59.98;100938.31;4978749;28;20454;-48
2021/10/07 04:36:49;;;;;;;2.67;1.92;;;;;;;14.38;61.01;100943.53;4976620;28;20046;-48
2021/10/07 04:39:15;;;;;;;3.92;2.78;;;;;;;14.37;60.69;100941.81;4978718;28;20085;-47
2021/10/07 04:41:42;;;;;;;2.30;1.65;;;;;;;14.37;60.98;100941.81;4973361;28;20265;-48
2021/10/07 04:44:09;;;;;;;3.83;2.65;;;;;;;14.38;59.94;100937.44;4974995;28;20057;-46
2021/10/07 04:46:35;;;;;;;2.55;2.35;;;;;;;14.37;60.23;100947.00;4974849;28;20082;-45
2021/10/07 04:49:02;;;;;;;1.88;1.67;;;;;;;14.38;60.11;100943.53;4976100;28;20066;-47
2021/10/07 04:51:29;;;;;;;3.00;1.90;;;;;;;14.37;60.76;100947.00;4977430;28;20108;-50
2021/10/07 04:53:56;;;;;;;2.33;0.80;;;;;;;14.38;60.30;100937.44;4977440;28;22267;-47
2021/10/07 04:56:22;;;;;;;3.55;3.25;;;;;;;14.37;60.27;100941.81;4976899;28;20125;-48
2021/10/07 04:58:49;;;;;;;2.13;1.70;;;;;;;14.37;60.91;100936.59;4975058;28;20054;-45
2021/10/07 05:01:19;;;;;;;3.08;1.67;;;;;;;14.38;60.63;100937.44;4977518;28;20046;-47
2021/10/07 05:03:48;;;;;;;2.33;2.05;;;;;;;14.38;60.54;100933.09;4974768;28;20057;-46
2021/10/07 05:06:15;;;;;;;2.78;0.85;;;;;;;14.38;61.14;100937.44;4975921;28;20375;-47
2021/10/07 05:08:41;;;;;;;3.58;1.92;;;;;;;14.38;60.58;100933.09;4974887;28;20102;-46
2021/10/07 05:11:08;;;;;;;2.60;1.88;;;;;;;14.39;60.53;100933.97;4976518;28;20112;-46
2021/10/07 05:13:34;;;;;;;2.65;1.90;;;;;;;14.40;60.72;100939.16;4976965;28;20219;-48
2021/10/07 05:16:01;;;;;;;3.03;1.95;;;;;;;14.40;60.20;100941.75;4977617;28;20074;-48
2021/10/07 05:18:28;;;;;;;2.25;1.67;;;;;;;14.40;60.70;100931.34;4978990;28;20178;-47
2021/10/07 05:20:55;;;;;;;2.42;1.75;;;;;;;14.40;61.45;100926.13;4975213;28;20584;-47
2021/10/07 05:23:22;;;;;;;6.03;2.72;;;;;;;14.40;60.74;100922.66;4977878;28;20140;-46
2021/10/07 05:25:48;;;;;;;6.60;2.22;;;;;;;14.43;61.59;100924.38;4976790;28;20572;-48
2021/10/07 05:28:15;;;;;;;4.07;2.22;;;;;;;14.42;62.22;100923.50;4975822;28;20074;-47
2021/10/07 05:30:42;;;;;;;2.63;2.42;;;;;;;14.43;61.92;100916.56;4974528;28;20120;-49
2021/10/07 05:33:09;;;;;;;3.00;2.22;;;;;;;14.43;61.30;100920.06;4974382;28;20046;-49
2021/10/07 05:35:35;;;;;;;2.20;1.85;;;;;;;14.42;60.74;100917.44;4977504;28;20112;-47
2021/10/07 05:38:02;;;;;;;2.80;1.73;;;;;;;14.42;60.98;100922.66;4978817;28;20058;-49
2021/10/07 05:40:30;;;;;;;2.50;1.73;;;;;;;14.42;60.79;100909.63;4975503;28;20124;-47
2021/10/07 05:42:56;;;;;;;4.45;1.75;;;;;;;14.43;61.03;100908.75;4975855;28;20058;-50
2021/10/07 05:45:23;;;;;;;3.58;2.13;;;;;;;14.42;61.97;100915.69;4975045;28;20058;-47
2021/10/07 05:47:49;;;;;;;6.07;1.73;;;;;;;14.43;62.46;100917.44;4975855;28;20096;-48
2021/10/07 05:50:16;;;;;;;5.05;1.92;;;;;;;14.43;62.12;100913.97;4976663;28;20050;-48
2021/10/07 05:52:42;;;;;;;5.15;2.05;;;;;;;14.44;61.97;100921.78;4974910;28;20132;-46
2021/10/07 05:55:09;;;;;;;3.53;2.35;;;;;;;14.43;62.09;100925.28;4977280;28;20058;-49
2021/10/07 05:57:36;;;;;;;5.15;3.10;;;;;;;14.45;62.35;100933.09;4978527;28;20063;-48
2021/10/07 06:00:06;;;;;;;5.13;1.75;;;;;;;14.45;62.54;100933.09;4979211;28;20128;-51
2021/10/07 06:02:35;;;;;;;3.42;1.88;;;;;;;14.45;62.90;100933.94;4982490;28;20097;-50
2021/10/07 06:05:03;;;;;;;3.75;1.35;;;;;;;14.46;62.45;100940.03;4983662;28;20383;-48
2021/10/07 06:07:30;;;;;;;4.45;2.05;;;;;;;14.46;62.70;100934.81;4985398;28;20046;-48
2021/10/07 06:09:57;;;;;;;2.17;1.77;;;;;;;14.46;60.97;100945.22;4983049;28;20629;-49
2021/10/07 06:12:24;;;;;;;3.30;2.13;;;;;;;14.45;61.94;100948.72;4985067;28;20097;-50
2021/10/07 06:14:51;;;;;;;2.55;1.80;;;;;;;14.45;61.67;100948.72;4982155;28;20050;-51
2021/10/07 06:17:17;;;;;;;2.88;2.03;;;;;;;14.46;62.04;100950.44;4983964;28;20043;-51
2021/10/07 06:19:47;;;;;;;6.05;2.35;;;;;;;14.45;62.40;100949.56;4983555;28;20100;-50
2021/10/07 06:22:14;;;;;;;3.72;2.38;;;;;;;14.46;61.35;100947.84;4983570;28;20909;-47
2021/10/07 06:24:41;;;;;;;3.55;2.05;;;;;;;14.46;61.94;100950.44;4985007;28;20096;-48
2021/10/07 06:27:08;;;;;;;3.42;2.08;;;;;;;14.47;61.69;100957.38;4983359;28;20046;-49
2021/10/07 06:29:34;;;;;;;3.28;3.08;;;;;;;14.47;61.93;100957.38;4982728;28;20058;-47
2021/10/07 06:32:01;;;;;;;3.15;1.95;;;;;;;14.46;60.92;100958.28;4985981;28;20089;-46
2021/10/07 06:34:27;;;;;;;5.30;1.75;;;;;;;14.46;61.40;100959.13;4982280;28;20046;-47
2021/10/07 06:36:54;;;;;;;2.38;2.00;;;;;;;14.46;61.74;100966.09;4982790;28;20117;-48
2021/10/07 06:39:21;;;;;;;4.13;1.98;;;;;;;14.45;61.41;100961.75;4983209;28;20042;-48
2021/10/07 06:41:48;;;;;;;1.52;1.38;;;;;;;14.45;61.56;100970.41;4982732;28;20042;-50
2021/10/07 06:44:15;;;;;;;5.10;1.95;;;;;;;14.44;61.45;100958.28;4985245;28;20050;-50
2021/10/07 06:46:41;;;;;;;1.83;1.70;;;;;;;14.45;61.52;100974.78;4983421;28;20050;-50
2021/10/07 06:49:08;;;;;;;2.92;2.03;;;;;;;14.46;61.02;100981.72;4983743;28;20105;-46
2021/10/07 06:51:34;;;;;;;4.35;1.67;;;;;;;14.46;60.65;100976.50;4979476;28;20117;-48
2021/10/07 06:54:02;;;;;;;2.72;1.40;;;;;;;14.45;61.20;100975.63;4982241;28;20061;-49
2021/10/07 06:56:29;;;;;;;2.45;2.00;;;;;;;14.46;61.20;100976.50;4983879;28;20058;-49
2021/10/07 06:58:55;;;;;;;3.78;1.83;;;;;;;14.46;60.60;100976.50;4977984;28;20077;-47
2021/10/07 07:01:25;;;;;;;3.63;1.80;;;;;;;14.45;61.45;100974.78;4984355;28;20077;-46
2021/10/07 07:03:53;;;;;;;2.15;1.30;;;;;;;14.45;61.48;100990.44;4980188;28;20081;-46
2021/10/07 07:06:22;;;;;;;2.75;1.83;;;;;;;14.46;60.55;100995.59;4983125;28;20050;-47
2021/10/07 07:08:49;;;;;;;2.22;2.05;;;;;;;14.47;61.08;100993.88;4982237;28;20461;-48
2021/10/07 07:11:17;;;;;;;1.65;1.20;;;;;;;14.48;60.77;100995.59;4983096;28;20154;-48
2021/10/07 07:13:44;;;;;;;3.00;2.30;;;;;;;14.47;60.97;100997.38;4978455;28;20050;-48
2021/10/07 07:16:11;;;;;;;1.65;1.42;;;;;;;14.47;61.25;100993.88;4983555;28;20058;-47
2021/10/07 07:18:40;;;;;;;5.35;1.17;;;;;;;14.47;60.89;100999.09;4984494;28;20382;-48
2021/10/07 07:21:07;;;;;;;2.75;1.80;;;;;;;14.48;60.79;101001.69;4984722;28;20058;-48
2021/10/07 07:23:33;;;;;;;3.40;1.77;;;;;;;14.47;60.91;100999.97;4979454;28;20061;-47
2021/10/07 07:26:00;;;;;;;3.08;1.58;;;;;;;14.50;61.40;101001.69;4982339;28;20113;-47
2021/10/07 07:28:27;;;;;;;2.38;1.65;;;;;;;14.51;61.89;101004.28;4982276;28;20054;-48
2021/10/07 07:30:53;;;;;;;2.55;2.35;;;;;;;14.50;61.21;101005.19;4978606;28;20476;-46
2021/10/07 07:33:24;;;;;;;2.88;2.13;;;;;;;14.52;61.95;101007.75;4979787;28;20054;-47
2021/10/07 07:35:50;;;;;;;3.70;2.35;;;;;;;14.54;61.14;101008.63;4987563;28;20129;-46
2021/10/07 07:38:17;;;;;;;1.75;1.42;;;;;;;14.55;61.58;101002.53;4988486;28;20116;-47
2021/10/07 07:40:44;;;;;;;3.55;1.88;;;;;;;14.57;61.67;100999.91;4985967;28;20057;-47
2021/10/07 07:43:18;;;;;;;6.05;2.42;;;;;;;14.59;62.17;101004.25;4987056;28;20062;-50
2021/10/07 07:45:47;;;;;;;2.65;1.88;;;;;;;14.60;61.24;101006.00;4984056;28;20061;-47
2021/10/07 07:48:14;;;;;;;1.40;0.88;;;;;;;14.63;61.31;101007.72;4982072;28;24097;-48
2021/10/07 07:50:41;;;;;;;5.30;2.15;;;;;;;14.65;62.00;101009.44;4984085;28;20569;-46
2021/10/07 07:53:08;;;;;;;2.08;0.93;;;;;;;14.65;61.46;101012.06;4984199;28;21014;-46
2021/10/07 07:55:35;;;;;;;2.90;1.90;;;;;;;14.67;61.49;101011.16;4982953;28;20062;-47
2021/10/07 07:58:01;;;;;;;6.18;1.30;;;;;;;14.70;61.80;101011.16;4982640;28;20106;-50
2021/10/07 08:00:29;;;;;;;4.43;1.98;;;;;;;14.72;61.11;101014.63;4986786;28;20050;-47
2021/10/07 08:02:56;;;;;;;6.13;2.55;;;;;;;14.75;61.54;101010.28;4987764;28;20053;-48
2021/10/07 08:05:22;;;;;;;5.47;2.25;;;;;;;14.77;62.21;101012.91;4983376;28;20047;-47
2021/10/07 08:07:49;;;;;;;7.18;2.70;;;;;;;14.78;61.75;101017.25;4987394;28;20225;-47
2021/10/07 08:10:16;;;;;;;5.32;2.33;;;;;;;14.82;61.78;101016.34;4987706;28;20046;-45
2021/10/07 08:12:43;;;;;;;3.42;2.22;;;;;;;14.85;61.88;101016.34;4985329;28;20089;-47
2021/10/07 08:15:10;;;;;;;7.53;2.72;;;;;;;14.88;61.69;101013.72;4985915;28;20054;-50
2021/10/07 08:17:38;;;;;;;4.55;1.35;;;;;;;14.92;61.83;101021.53;4987477;28;20462;-50
2021/10/07 08:20:07;;;;;;;2.13;1.65;;;;;;;14.95;61.45;101026.72;4986212;28;20080;-49
2021/10/07 08:22:34;;;;;;;2.40;1.92;;;;;;;14.96;61.44;101024.09;4987043;28;20755;-49
2021/10/07 08:25:02;;;;;;;2.72;2.53;;;;;;;14.99;61.97;101021.47;4987937;28;20049;-48
2021/10/07 08:27:29;;;;;;;2.75;1.70;;;;;;;15.02;61.35;101031.03;4983805;28;20042;-51
2021/10/07 08:29:56;;;;;;;6.07;2.90;;;;;;;15.07;62.70;101028.41;4988207;28;20046;-46
2021/10/07 08:32:23;;;;;;;6.13;3.20;;;;;;;15.08;62.22;101028.41;4986177;28;20050;-48
2021/10/07 08:34:50;;;;;;;4.13;2.55;;;;;;;15.11;62.57;101028.38;4986305;28;20062;-50
2021/10/07 08:37:17;;;;;;;5.93;3.30;;;;;;;15.15;61.83;101029.22;4988147;28;20527;-48
2021/10/07 08:39:44;;;;;;;5.55;2.58;;;;;;;15.19;62.58;101040.53;4985973;28;20049;-47
2021/10/07 08:42:10;;;;;;;2.17;1.95;;;;;;;15.24;62.11;101033.53;4986338;28;20050;-47
2021/10/07 08:44:37;;;;;;;2.20;2.00;;;;;;;15.26;61.75;101029.13;4986442;28;20061;-51
2021/10/07 08:47:04;;;;;;;2.20;1.92;;;;;;;15.29;61.82;101036.97;4984113;28;20050;-50
2021/10/07 08:49:36;;;;;;;2.92;2.28;;;;;;;15.33;61.89;101038.66;4985382;28;20081;-48
2021/10/07 08:52:03;;;;;;;5.40;2.80;;;;;;;15.38;62.29;101036.91;4985169;28;20133;-48
2021/10/07 08:54:33;;;;;;;6.88;3.88;;;;;;;15.41;62.28;101038.63;4985966;28;20050;-49
2021/10/07 08:57:01;;;;;;;2.40;1.77;;;;;;;15.45;61.42;101029.03;4985107;28;20065;-47
2021/10/07 08:59:29;;;;;;;4.78;2.38;;;;;;;15.50;63.09;101035.09;4984361;28;20058;-47
2021/10/07 09:01:58;;;;;;;5.15;2.15;;;;;;;15.54;62.59;101031.59;4984486;28;20062;-47
2021/10/07 09:04:28;;;;;;;3.92;2.60;;;;;;;15.59;62.42;101040.22;4984356;28;20165;-49
2021/10/07 09:06:58;;;;;;;4.20;2.50;;;;;;;15.62;62.42;101034.13;4984429;28;20073;-48
2021/10/07 09:09:28;;;;;;;4.45;2.60;;;;;;;15.67;62.91;101038.41;4979480;28;20211;-48
2021/10/07 09:12:00;;;;;;;2.78;2.03;;;;;;;15.71;62.62;101048.84;4983767;28;20114;-50
2021/10/07 09:14:30;;;;;;;3.67;2.25;;;;;;;15.75;62.16;101041.00;4981934;28;20050;-48
2021/10/07 09:16:58;;;;;;;3.72;2.47;;;;;;;15.81;62.64;101040.06;4984138;28;20136;-49
2021/10/07 09:19:30;;;;;;;3.88;2.10;;;;;;;15.84;63.00;101050.47;4983251;28;20058;-49
2021/10/07 09:22:00;;;;;;;6.43;2.60;;;;;;;15.91;63.64;101046.94;4986510;28;20050;-51
2021/10/07 09:24:30;;;;;;;5.18;2.65;;;;;;;15.97;63.29;101053.03;4985391;28;20050;-50
2021/10/07 09:27:19;;;;;;;6.03;2.55;;;;;;;16.01;63.09;101054.72;4986686;28;20462;-49
2021/10/07 09:29:50;;;;;;;5.80;2.97;;;;;;;16.08;63.44;101053.78;4986593;28;20054;-49
2021/10/07 09:32:28;;;;;;;4.57;2.75;;;;;;;16.11;63.09;101064.19;4983499;28;20474;-49
2021/10/07 09:34:57;;;;;;;4.78;2.55;;;;;;;16.22;63.44;101060.63;4985050;28;20051;-48
2021/10/07 09:37:27;;;;;;;5.82;2.60;;;;;;;16.29;63.66;101057.06;4986718;28;20097;-48
2021/10/07 09:39:59;;;;;;;2.72;1.80;;;;;;;16.35;62.74;101056.97;4988115;28;20046;-48
2021/10/07 09:42:34;;;;;;;6.60;3.13;;;;;;;16.43;62.83;101046.44;4987026;28;20046;-48
2021/10/07 09:45:09;;;;;;;4.13;3.33;;;;;;;16.52;62.82;101053.34;4987463;28;20100;-47
2021/10/07 09:47:41;;;;;;;5.93;3.10;;;;;;;16.61;63.65;101050.59;4984859;28;20054;-47
2021/10/07 09:50:29;;;;;;;9.25;2.95;;;;;;;16.67;63.69;101042.69;4985216;28;20109;-50
2021/10/07 09:53:00;;;;;;;4.68;2.55;;;;;;;16.77;63.36;101043.44;5000016;28;20120;-48
2021/10/07 09:55:34;;;;;;;4.47;2.15;;;;;;;16.84;63.69;101039.00;4985476;28;20157;-48
2021/10/07 09:58:09;;;;;;;4.82;2.45;;;;;;;16.93;63.63;101038.84;4985153;28;20050;-47
2021/10/07 10:00:38;;;;;;;4.90;2.33;;;;;;;17.02;62.59;101031.78;4984036;28;20054;-52
2021/10/07 10:03:08;;;;;;;2.35;1.95;;;;;;;17.10;62.53;101040.44;5000991;28;20046;-53
2021/10/07 10:05:36;;;;;;;2.22;1.80;;;;;;;17.19;62.59;101040.28;4985463;28;20085;-49
2021/10/07 10:08:06;;;;;;;3.67;2.00;;;;;;;17.28;61.66;101043.66;4985076;28;20038;-49
2021/10/07 10:10:34;;;;;;;3.90;2.78;;;;;;;17.38;62.33;101047.88;4984945;28;20046;-50
2021/10/07 10:13:02;;;;;;;4.07;2.10;;;;;;;17.48;63.24;101045.97;4985897;28;20517;-49
2021/10/07 10:15:30;;;;;;;4.70;2.25;;;;;;;17.58;62.40;101046.69;4984198;28;20058;-49
2021/10/07 10:17:57;;;;;;;3.67;2.10;;;;;;;17.67;62.71;101050.94;4983746;28;20057;-49
2021/10/07 10:20:29;;;;;;;3.83;1.92;;;;;;;17.75;62.74;101045.53;4983386;28;20431;-50
2021/10/07 10:23:01;;;;;;;5.32;2.40;;;;;;;17.84;62.63;101048.03;4983169;28;20089;-49
2021/10/07 10:25:31;;;;;;;2.72;2.47;;;;;;;17.95;61.90;101051.31;4983735;28;20050;-47
2021/10/07 10:28:03;;;;;;;2.40;2.03;;;;;;;18.03;61.29;101053.78;4983903;28;20050;-51
2021/10/07 10:30:39;;;;;;;2.60;2.40;;;;;;;18.09;61.44;101048.47;4983101;28;20054;-48
2021/10/07 10:33:06;;;;;;;2.65;1.85;;;;;;;18.17;61.19;101056.19;4982856;28;20054;-51
2021/10/07 10:35:37;;;;;;;3.72;2.10;;;;;;;18.24;62.15;101057.81;4979926;28;20109;-50
2021/10/07 10:38:08;;;;;;;1.92;1.73;;;;;;;18.31;61.77;101062.94;4982644;28;20093;-50
2021/10/07 10:40:37;;;;;;;3.03;2.25;;;;;;;18.38;61.26;101059.31;4981496;28;20058;-52
2021/10/07 10:43:26;;;;;;;2.38;1.58;;;;;;;18.42;61.41;101057.50;4995571;28;20102;-50
2021/10/07 10:46:10;;;;;;;2.60;1.65;;;;;;;18.47;61.58;101043.41;4979697;28;20061;-49
2021/10/07 10:48:53;;;;;;;2.65;1.77;;;;;;;18.55;60.86;101039.75;4980980;28;20065;-49
2021/10/07 10:51:22;;;;;;;2.22;1.75;;;;;;;18.65;60.49;101041.31;4983267;28;21097;-49
2021/10/07 10:54:00;;;;;;;1.77;0.60;;;;;;;18.67;60.51;101047.38;4983366;28;20637;-48
2021/10/07 10:56:33;;;;;;;2.22;1.42;;;;;;;18.75;61.29;101047.22;4981425;28;20054;-50
2021/10/07 10:59:21;;;;;;;3.75;2.13;;;;;;;18.80;60.78;101054.97;4979391;28;20153;-48
2021/10/07 11:02:24;;;;;;;1.88;1.67;;;;;;;18.87;61.02;101046.09;4982119;28;20046;-48
2021/10/07 11:04:53;;;;;;;2.25;1.95;;;;;;;18.98;61.23;101048.50;4980441;28;20050;-50
2021/10/07 11:07:23;;;;;;;2.22;1.58;;;;;;;19.06;60.82;101045.69;4977244;28;20159;-51
2021/10/07 11:10:01;;;;;;;1.63;1.52;;;;;;;19.10;60.84;101042.13;4987809;28;20573;-48
2021/10/07 11:12:40;;;;;;;2.22;2.05;;;;;;;19.21;60.56;101049.75;4986731;28;20042;-49
2021/10/07 11:15:09;;;;;;;3.17;2.00;;;;;;;19.32;61.11;101054.78;4986662;28;20757;-49
2021/10/07 11:17:39;;;;;;;2.25;2.05;;;;;;;19.37;61.12;101061.66;4985612;28;20058;-48
2021/10/07 11:20:07;;;;;;;1.92;1.38;;;;;;;19.47;61.25;101057.03;4990611;28;20092;-48
2021/10/07 11:22:34;;;;;;;2.67;1.73;;;;;;;19.57;61.31;101064.69;4987194;28;20050;-50
2021/10/07 11:25:01;;;;;;;2.10;1.90;;;;;;;19.61;60.32;101064.59;4989678;28;20043;-50
2021/10/07 11:27:41;;;;;;;2.00;1.85;;;;;;;19.67;60.83;101068.81;4988474;28;20054;-50
2021/10/07 11:30:11;;;;;;;2.78;1.50;;;;;;;19.75;60.74;101066.88;4988133;28;20054;-52
2021/10/07 11:32:40;;;;;;;2.47;2.28;;;;;;;19.83;60.47;101069.31;4988954;28;20085;-52